sensor_id;sensor_type;location;lat;lon;timestamp;temperature;humidity
30150;DHT22;16962;48.646;9.026;2023-08-24T00:02:24;18.10;99.90
30150;DHT22;16962;48.646;9.026;2023-08-24T00:05:13;18.10;99.90
30150;DHT22;16962;48.646;9.026;2023-08-24T00:08:03;18.10;99.90
30150;DHT22;16962;48.646;9.026;2023-08-24T00:10:55;18.00;1.00
30150;DHT22;16962;48.646;9.026;2023-08-24T00:13:43;17.90;99.90
30150;DHT22;16962;48.646;9.026;2023-08-24T00:16:40;17.80;99.90
30150;DHT22;16962;48.646;9.026;2023-08-24T00:19:30;17.70;1.00
30150;DHT22;16962;48.646;9.026;2023-08-24T00:22:17;17.70;99.90
30150;DHT22;16962;48.646;9.026;2023-08-24T00:25:06;17.90;99.90
30150;DHT22;16962;48.646;9.026;2023-08-24T00:27:54;17.90;99.90
30150;DHT22;16962;48.646;9.026;2023-08-24T00:30:43;17.90;99.90
30150;DHT22;16962;48.646;9.026;2023-08-24T00:33:30;17.70;40.20
30150;DHT22;16962;48.646;9.026;2023-08-24T00:36:18;17.70;1.00
30150;DHT22;16962;48.646;9.026;2023-08-24T00:39:12;17.70;1.00
30150;DHT22;16962;48.646;9.026;2023-08-24T00:42:05;17.70;59.10
30150;DHT22;16962;48.646;9.026;2023-08-24T00:44:55;17.70;89.60
30150;DHT22;16962;48.646;9.026;2023-08-24T00:47:46;17.60;17.60
30150;DHT22;16962;48.646;9.026;2023-08-24T00:50:35;17.70;1.00
30150;DHT22;16962;48.646;9.026;2023-08-24T00:53:24;17.60;1.00
30150;DHT22;16962;48.646;9.026;2023-08-24T00:56:19;17.60;99.90
30150;DHT22;16962;48.646;9.026;2023-08-24T00:59:11;17.40;99.90
30150;DHT22;16962;48.646;9.026;2023-08-24T01:01:59;17.30;99.90
30150;DHT22;16962;48.646;9.026;2023-08-24T01:04:48;17.20;99.90
30150;DHT22;16962;48.646;9.026;2023-08-24T01:07:39;17.10;99.90
30150;DHT22;16962;48.646;9.026;2023-08-24T01:10:36;17.20;1.00
30150;DHT22;16962;48.646;9.026;2023-08-24T01:16:57;17.00;99.90
30150;DHT22;16962;48.646;9.026;2023-08-24T01:19:52;16.90;99.90
30150;DHT22;16962;48.646;9.026;2023-08-24T01:28:47;16.70;99.90
30150;DHT22;16962;48.646;9.026;2023-08-24T01:31:34;16.70;99.90
30150;DHT22;16962;48.646;9.026;2023-08-24T01:34:22;16.60;99.90
30150;DHT22;16962;48.646;9.026;2023-08-24T01:37:09;16.60;99.90
30150;DHT22;16962;48.646;9.026;2023-08-24T01:40:07;16.70;99.90
30150;DHT22;16962;48.646;9.026;2023-08-24T01:43:06;16.80;99.90
30150;DHT22;16962;48.646;9.026;2023-08-24T01:45:58;16.80;99.90
30150;DHT22;16962;48.646;9.026;2023-08-24T01:48:45;16.80;99.90
30150;DHT22;16962;48.646;9.026;2023-08-24T01:51:34;16.80;99.90
30150;DHT22;16962;48.646;9.026;2023-08-24T01:54:22;16.80;99.90
30150;DHT22;16962;48.646;9.026;2023-08-24T01:57:10;16.80;99.90
30150;DHT22;16962;48.646;9.026;2023-08-24T01:59:59;16.70;99.90
30150;DHT22;16962;48.646;9.026;2023-08-24T02:02:46;16.60;99.90
30150;DHT22;16962;48.646;9.026;2023-08-24T02:05:37;16.70;99.90
30150;DHT22;16962;48.646;9.026;2023-08-24T02:08:35;16.80;99.90
30150;DHT22;16962;48.646;9.026;2023-08-24T02:11:25;16.90;99.90
30150;DHT22;16962;48.646;9.026;2023-08-24T02:14:12;16.90;1.00
30150;DHT22;16962;48.646;9.026;2023-08-24T02:17:04;16.90;99.90
30150;DHT22;16962;48.646;9.026;2023-08-24T02:19:55;16.90;99.90
30150;DHT22;16962;48.646;9.026;2023-08-24T02:22:44;16.80;1.00
30150;DHT22;16962;48.646;9.026;2023-08-24T02:25:34;16.70;6.00
30150;DHT22;16962;48.646;9.026;2023-08-24T02:28:21;16.70;99.90
30150;DHT22;16962;48.646;9.026;2023-08-24T02:31:08;16.60;99.90
30150;DHT22;16962;48.646;9.026;2023-08-24T02:34:01;16.60;99.90
30150;DHT22;16962;48.646;9.026;2023-08-24T02:36:56;16.60;99.90
30150;DHT22;16962;48.646;9.026;2023-08-24T02:39:43;16.50;99.90
30150;DHT22;16962;48.646;9.026;2023-08-24T02:42:35;16.60;99.90
30150;DHT22;16962;48.646;9.026;2023-08-24T02:45:22;16.80;99.90
30150;DHT22;16962;48.646;9.026;2023-08-24T02:48:10;16.90;11.60
30150;DHT22;16962;48.646;9.026;2023-08-24T02:51:00;16.90;1.00
30150;DHT22;16962;48.646;9.026;2023-08-24T02:53:51;17.00;99.90
30150;DHT22;16962;48.646;9.026;2023-08-24T02:56:40;17.10;4.10
30150;DHT22;16962;48.646;9.026;2023-08-24T02:59:27;17.10;99.90
30150;DHT22;16962;48.646;9.026;2023-08-24T03:02:14;17.10;1.00
30150;DHT22;16962;48.646;9.026;2023-08-24T03:05:04;17.20;1.00
30150;DHT22;16962;48.646;9.026;2023-08-24T03:07:54;17.30;1.00
30150;DHT22;16962;48.646;9.026;2023-08-24T03:10:44;17.30;99.90
30150;DHT22;16962;48.646;9.026;2023-08-24T03:13:33;17.30;99.90
30150;DHT22;16962;48.646;9.026;2023-08-24T03:16:23;17.10;1.00
30150;DHT22;16962;48.646;9.026;2023-08-24T03:19:12;17.00;99.90
30150;DHT22;16962;48.646;9.026;2023-08-24T03:22:03;16.90;99.90
30150;DHT22;16962;48.646;9.026;2023-08-24T03:24:53;16.80;1.00
30150;DHT22;16962;48.646;9.026;2023-08-24T03:27:45;16.80;99.90
30150;DHT22;16962;48.646;9.026;2023-08-24T03:30:33;16.70;99.90
30150;DHT22;16962;48.646;9.026;2023-08-24T03:33:21;16.70;99.90
30150;DHT22;16962;48.646;9.026;2023-08-24T03:36:13;16.60;99.90
30150;DHT22;16962;48.646;9.026;2023-08-24T03:39:05;16.70;99.90
30150;DHT22;16962;48.646;9.026;2023-08-24T03:41:55;16.60;48.20
30150;DHT22;16962;48.646;9.026;2023-08-24T03:44:49;16.50;99.90
30150;DHT22;16962;48.646;9.026;2023-08-24T03:47:37;16.60;99.90
30150;DHT22;16962;48.646;9.026;2023-08-24T03:50:29;16.60;99.90
30150;DHT22;16962;48.646;9.026;2023-08-24T03:53:18;16.60;99.90
30150;DHT22;16962;48.646;9.026;2023-08-24T03:56:06;16.70;99.90
30150;DHT22;16962;48.646;9.026;2023-08-24T03:58:53;16.70;99.90
30150;DHT22;16962;48.646;9.026;2023-08-24T04:01:42;16.80;99.90
30150;DHT22;16962;48.646;9.026;2023-08-24T04:04:30;16.80;99.90
30150;DHT22;16962;48.646;9.026;2023-08-24T04:07:22;16.90;99.90
30150;DHT22;16962;48.646;9.026;2023-08-24T04:10:09;16.90;99.90
30150;DHT22;16962;48.646;9.026;2023-08-24T04:12:57;16.90;99.90
30150;DHT22;16962;48.646;9.026;2023-08-24T04:15:44;16.90;99.90
30150;DHT22;16962;48.646;9.026;2023-08-24T04:18:34;17.00;99.90
30150;DHT22;16962;48.646;9.026;2023-08-24T04:21:24;17.00;87.80
30150;DHT22;16962;48.646;9.026;2023-08-24T04:24:11;16.90;65.20
30150;DHT22;16962;48.646;9.026;2023-08-24T04:26:58;16.90;39.10
30150;DHT22;16962;48.646;9.026;2023-08-24T04:29:45;16.90;23.30
30150;DHT22;16962;48.646;9.026;2023-08-24T04:32:32;17.00;1.00
30150;DHT22;16962;48.646;9.026;2023-08-24T04:35:24;16.90;99.90
30150;DHT22;16962;48.646;9.026;2023-08-24T04:38:14;16.90;99.90
30150;DHT22;16962;48.646;9.026;2023-08-24T04:41:02;16.80;99.90
30150;DHT22;16962;48.646;9.026;2023-08-24T04:43:54;16.70;99.90
30150;DHT22;16962;48.646;9.026;2023-08-24T04:46:41;16.70;99.90
30150;DHT22;16962;48.646;9.026;2023-08-24T04:49:36;16.70;1.00
30150;DHT22;16962;48.646;9.026;2023-08-24T04:52:24;16.70;96.60
30150;DHT22;16962;48.646;9.026;2023-08-24T04:55:11;16.70;99.90
30150;DHT22;16962;48.646;9.026;2023-08-24T04:58:01;16.90;99.90
30150;DHT22;16962;48.646;9.026;2023-08-24T05:00:48;16.90;99.90
30150;DHT22;16962;48.646;9.026;2023-08-24T05:03:36;17.00;80.20
30150;DHT22;16962;48.646;9.026;2023-08-24T05:06:26;17.10;90.10
30150;DHT22;16962;48.646;9.026;2023-08-24T05:09:13;17.10;99.90
30150;DHT22;16962;48.646;9.026;2023-08-24T05:12:01;17.20;99.90
30150;DHT22;16962;48.646;9.026;2023-08-24T05:14:50;17.20;99.90
30150;DHT22;16962;48.646;9.026;2023-08-24T05:17:37;17.20;99.90
30150;DHT22;16962;48.646;9.026;2023-08-24T05:20:28;17.30;99.90
30150;DHT22;16962;48.646;9.026;2023-08-24T05:23:15;17.40;31.40
30150;DHT22;16962;48.646;9.026;2023-08-24T05:26:03;17.50;1.00
30150;DHT22;16962;48.646;9.026;2023-08-24T05:28:52;17.60;1.00
30150;DHT22;16962;48.646;9.026;2023-08-24T05:31:40;17.70;1.00
30150;DHT22;16962;48.646;9.026;2023-08-24T05:34:27;17.80;99.90
30150;DHT22;16962;48.646;9.026;2023-08-24T05:37:14;17.90;99.90
30150;DHT22;16962;48.646;9.026;2023-08-24T05:40:04;18.00;54.60
30150;DHT22;16962;48.646;9.026;2023-08-24T05:42:56;18.10;99.90
30150;DHT22;16962;48.646;9.026;2023-08-24T05:45:45;18.30;92.40
30150;DHT22;16962;48.646;9.026;2023-08-24T05:48:36;18.50;99.90
30150;DHT22;16962;48.646;9.026;2023-08-24T05:51:25;18.70;99.90
30150;DHT22;16962;48.646;9.026;2023-08-24T05:54:14;18.80;65.00
30150;DHT22;16962;48.646;9.026;2023-08-24T05:57:04;18.80;99.90
30150;DHT22;16962;48.646;9.026;2023-08-24T05:59:54;18.80;99.90
30150;DHT22;16962;48.646;9.026;2023-08-24T06:02:48;18.90;1.00
30150;DHT22;16962;48.646;9.026;2023-08-24T06:05:37;19.00;99.90
30150;DHT22;16962;48.646;9.026;2023-08-24T06:08:29;19.10;99.90
30150;DHT22;16962;48.646;9.026;2023-08-24T06:11:21;19.20;99.90
30150;DHT22;16962;48.646;9.026;2023-08-24T06:14:09;19.30;35.60
30150;DHT22;16962;48.646;9.026;2023-08-24T06:16:56;19.40;1.00
30150;DHT22;16962;48.646;9.026;2023-08-24T06:19:43;19.50;1.00
30150;DHT22;16962;48.646;9.026;2023-08-24T06:22:30;19.60;99.90
30150;DHT22;16962;48.646;9.026;2023-08-24T06:25:20;19.60;99.90
30150;DHT22;16962;48.646;9.026;2023-08-24T06:28:15;19.60;99.90
30150;DHT22;16962;48.646;9.026;2023-08-24T06:31:03;19.60;99.90
30150;DHT22;16962;48.646;9.026;2023-08-24T06:33:51;19.80;99.90
30150;DHT22;16962;48.646;9.026;2023-08-24T06:36:50;19.90;1.00
30150;DHT22;16962;48.646;9.026;2023-08-24T06:43:35;20.20;99.90
30150;DHT22;16962;48.646;9.026;2023-08-24T06:46:54;20.40;99.90
30150;DHT22;16962;48.646;9.026;2023-08-24T06:49:42;20.50;99.90
30150;DHT22;16962;48.646;9.026;2023-08-24T06:52:40;20.60;99.90
30150;DHT22;16962;48.646;9.026;2023-08-24T07:00:33;20.90;99.90
30150;DHT22;16962;48.646;9.026;2023-08-24T07:03:40;20.90;94.40
30150;DHT22;16962;48.646;9.026;2023-08-24T07:06:29;21.00;99.90
30150;DHT22;16962;48.646;9.026;2023-08-24T07:09:19;21.00;99.90
30150;DHT22;16962;48.646;9.026;2023-08-24T07:12:09;21.10;51.00
30150;DHT22;16962;48.646;9.026;2023-08-24T07:15:18;21.20;1.00
30150;DHT22;16962;48.646;9.026;2023-08-24T07:18:13;21.30;1.00
30150;DHT22;16962;48.646;9.026;2023-08-24T07:21:01;21.20;1.00
30150;DHT22;16962;48.646;9.026;2023-08-24T07:23:48;21.10;1.00
30150;DHT22;16962;48.646;9.026;2023-08-24T07:26:40;21.30;1.00
30150;DHT22;16962;48.646;9.026;2023-08-24T07:29:28;21.80;1.00
30150;DHT22;16962;48.646;9.026;2023-08-24T07:32:16;22.20;99.90
30150;DHT22;16962;48.646;9.026;2023-08-24T07:35:07;22.40;99.90
30150;DHT22;16962;48.646;9.026;2023-08-24T07:37:57;22.60;99.90
30150;DHT22;16962;48.646;9.026;2023-08-24T07:40:48;22.80;99.90
30150;DHT22;16962;48.646;9.026;2023-08-24T07:43:35;22.90;99.90
30150;DHT22;16962;48.646;9.026;2023-08-24T07:46:25;22.90;62.70
30150;DHT22;16962;48.646;9.026;2023-08-24T07:49:14;23.00;24.10
30150;DHT22;16962;48.646;9.026;2023-08-24T07:52:02;23.50;1.00
30150;DHT22;16962;48.646;9.026;2023-08-24T07:54:52;24.20;1.00
30150;DHT22;16962;48.646;9.026;2023-08-24T07:57:41;25.20;1.00
30150;DHT22;16962;48.646;9.026;2023-08-24T08:00:29;26.10;99.90
30150;DHT22;16962;48.646;9.026;2023-08-24T08:03:19;26.40;99.90
30150;DHT22;16962;48.646;9.026;2023-08-24T08:06:08;26.30;99.90
30150;DHT22;16962;48.646;9.026;2023-08-24T08:08:57;26.30;99.90
30150;DHT22;16962;48.646;9.026;2023-08-24T08:11:51;26.30;99.90
30150;DHT22;16962;48.646;9.026;2023-08-24T08:15:07;26.80;99.90
30150;DHT22;16962;48.646;9.026;2023-08-24T08:17:55;28.00;99.90
30150;DHT22;16962;48.646;9.026;2023-08-24T08:20:50;28.60;99.90
30150;DHT22;16962;48.646;9.026;2023-08-24T08:23:48;29.40;99.90
30150;DHT22;16962;48.646;9.026;2023-08-24T08:26:37;29.60;99.90
30150;DHT22;16962;48.646;9.026;2023-08-24T08:29:27;30.00;99.90
30150;DHT22;16962;48.646;9.026;2023-08-24T08:32:21;30.30;99.90
30150;DHT22;16962;48.646;9.026;2023-08-24T08:35:09;30.90;99.90
30150;DHT22;16962;48.646;9.026;2023-08-24T08:37:58;31.20;99.90
30150;DHT22;16962;48.646;9.026;2023-08-24T08:40:49;31.40;88.00
30150;DHT22;16962;48.646;9.026;2023-08-24T08:43:42;30.90;67.60
30150;DHT22;16962;48.646;9.026;2023-08-24T08:46:32;31.20;78.20
30150;DHT22;16962;48.646;9.026;2023-08-24T08:49:25;31.30;60.50
30150;DHT22;16962;48.646;9.026;2023-08-24T08:52:12;31.50;44.50
30150;DHT22;16962;48.646;9.026;2023-08-24T08:55:02;31.30;45.60
30150;DHT22;16962;48.646;9.026;2023-08-24T08:57:56;31.20;44.50
30150;DHT22;16962;48.646;9.026;2023-08-24T09:00:47;32.10;39.70
30150;DHT22;16962;48.646;9.026;2023-08-24T09:03:39;32.20;28.30
30150;DHT22;16962;48.646;9.026;2023-08-24T09:06:27;32.90;29.90
30150;DHT22;16962;48.646;9.026;2023-08-24T09:09:22;33.10;19.30
30150;DHT22;16962;48.646;9.026;2023-08-24T09:12:12;33.40;6.10
30150;DHT22;16962;48.646;9.026;2023-08-24T09:15:06;33.80;1.00
30150;DHT22;16962;48.646;9.026;2023-08-24T09:17:56;33.70;1.00
30150;DHT22;16962;48.646;9.026;2023-08-24T09:20:44;33.60;1.00
30150;DHT22;16962;48.646;9.026;2023-08-24T09:23:31;33.60;1.00
30150;DHT22;16962;48.646;9.026;2023-08-24T09:26:33;33.40;1.00
30150;DHT22;16962;48.646;9.026;2023-08-24T09:29:21;33.20;1.00
30150;DHT22;16962;48.646;9.026;2023-08-24T09:32:13;33.00;1.00
30150;DHT22;16962;48.646;9.026;2023-08-24T09:35:07;33.10;1.00
30150;DHT22;16962;48.646;9.026;2023-08-24T09:37:57;33.20;1.00
30150;DHT22;16962;48.646;9.026;2023-08-24T09:40:52;33.60;1.00
30150;DHT22;16962;48.646;9.026;2023-08-24T09:43:39;34.00;1.00
30150;DHT22;16962;48.646;9.026;2023-08-24T09:46:27;34.60;1.00
30150;DHT22;16962;48.646;9.026;2023-08-24T09:49:16;35.00;1.00
30150;DHT22;16962;48.646;9.026;2023-08-24T09:52:16;35.00;1.00
30150;DHT22;16962;48.646;9.026;2023-08-24T09:59:26;34.60;1.00
30150;DHT22;16962;48.646;9.026;2023-08-24T10:27:22;36.20;1.00
30150;DHT22;16962;48.646;9.026;2023-08-24T10:30:14;36.70;1.00
30150;DHT22;16962;48.646;9.026;2023-08-24T10:33:03;36.40;1.00
30150;DHT22;16962;48.646;9.026;2023-08-24T10:35:52;37.00;1.00
30150;DHT22;16962;48.646;9.026;2023-08-24T10:38:43;36.80;1.00
30150;DHT22;16962;48.646;9.026;2023-08-24T10:41:49;36.40;1.00
30150;DHT22;16962;48.646;9.026;2023-08-24T10:44:48;36.00;1.00
30150;DHT22;16962;48.646;9.026;2023-08-24T10:47:44;35.30;1.00
30150;DHT22;16962;48.646;9.026;2023-08-24T10:50:33;36.10;1.00
30150;DHT22;16962;48.646;9.026;2023-08-24T10:53:51;36.50;1.00
30150;DHT22;16962;48.646;9.026;2023-08-24T10:56:39;37.00;1.00
30150;DHT22;16962;48.646;9.026;2023-08-24T10:59:41;36.90;1.00
30150;DHT22;16962;48.646;9.026;2023-08-24T11:02:47;37.30;1.00
30150;DHT22;16962;48.646;9.026;2023-08-24T11:05:35;37.80;1.00
30150;DHT22;16962;48.646;9.026;2023-08-24T11:08:45;38.60;1.00
30150;DHT22;16962;48.646;9.026;2023-08-24T11:11:33;38.60;1.00
30150;DHT22;16962;48.646;9.026;2023-08-24T11:14:20;38.90;1.00
30150;DHT22;16962;48.646;9.026;2023-08-24T11:17:20;39.00;1.00
30150;DHT22;16962;48.646;9.026;2023-08-24T11:20:16;39.30;1.00
30150;DHT22;16962;48.646;9.026;2023-08-24T11:23:06;39.20;1.00
30150;DHT22;16962;48.646;9.026;2023-08-24T11:25:57;39.50;1.00
30150;DHT22;16962;48.646;9.026;2023-08-24T11:28:53;39.90;1.00
30150;DHT22;16962;48.646;9.026;2023-08-24T11:31:44;39.90;1.00
30150;DHT22;16962;48.646;9.026;2023-08-24T11:34:33;39.40;1.00
30150;DHT22;16962;48.646;9.026;2023-08-24T11:37:25;37.50;1.00
30150;DHT22;16962;48.646;9.026;2023-08-24T11:40:20;36.20;1.00
30150;DHT22;16962;48.646;9.026;2023-08-24T11:43:10;36.90;1.00
30150;DHT22;16962;48.646;9.026;2023-08-24T11:45:59;37.10;1.00
30150;DHT22;16962;48.646;9.026;2023-08-24T11:48:49;37.30;1.00
30150;DHT22;16962;48.646;9.026;2023-08-24T11:51:39;38.40;1.00
30150;DHT22;16962;48.646;9.026;2023-08-24T11:54:32;38.80;1.00
30150;DHT22;16962;48.646;9.026;2023-08-24T11:57:20;38.30;1.00
30150;DHT22;16962;48.646;9.026;2023-08-24T12:00:12;38.70;1.00
30150;DHT22;16962;48.646;9.026;2023-08-24T12:03:00;39.70;1.00
30150;DHT22;16962;48.646;9.026;2023-08-24T12:05:51;39.50;1.00
30150;DHT22;16962;48.646;9.026;2023-08-24T12:08:46;40.10;1.00
30150;DHT22;16962;48.646;9.026;2023-08-24T12:11:37;40.50;1.00
30150;DHT22;16962;48.646;9.026;2023-08-24T12:14:25;40.80;1.00
30150;DHT22;16962;48.646;9.026;2023-08-24T12:17:21;40.30;1.00
30150;DHT22;16962;48.646;9.026;2023-08-24T12:20:45;41.00;1.00
30150;DHT22;16962;48.646;9.026;2023-08-24T12:24:13;41.00;1.00
30150;DHT22;16962;48.646;9.026;2023-08-24T12:27:26;40.10;1.00
30150;DHT22;16962;48.646;9.026;2023-08-24T12:30:14;38.90;1.00
30150;DHT22;16962;48.646;9.026;2023-08-24T12:33:04;38.20;1.00
30150;DHT22;16962;48.646;9.026;2023-08-24T12:35:53;38.60;1.00
30150;DHT22;16962;48.646;9.026;2023-08-24T12:38:42;39.30;1.00
30150;DHT22;16962;48.646;9.026;2023-08-24T12:41:34;39.90;1.00
30150;DHT22;16962;48.646;9.026;2023-08-24T12:44:26;41.20;1.00
30150;DHT22;16962;48.646;9.026;2023-08-24T12:47:17;40.80;1.00
30150;DHT22;16962;48.646;9.026;2023-08-24T12:50:09;40.60;1.00
30150;DHT22;16962;48.646;9.026;2023-08-24T12:52:56;40.20;1.00
30150;DHT22;16962;48.646;9.026;2023-08-24T12:55:53;39.70;1.00
30150;DHT22;16962;48.646;9.026;2023-08-24T12:58:41;39.60;1.00
30150;DHT22;16962;48.646;9.026;2023-08-24T13:01:28;39.10;1.00
30150;DHT22;16962;48.646;9.026;2023-08-24T13:04:18;38.40;1.00
30150;DHT22;16962;48.646;9.026;2023-08-24T13:07:08;38.80;1.00
30150;DHT22;16962;48.646;9.026;2023-08-24T13:09:58;39.10;1.00
30150;DHT22;16962;48.646;9.026;2023-08-24T13:12:45;38.80;1.00
30150;DHT22;16962;48.646;9.026;2023-08-24T13:15:35;38.90;1.00
30150;DHT22;16962;48.646;9.026;2023-08-24T13:18:23;38.50;1.00
30150;DHT22;16962;48.646;9.026;2023-08-24T13:21:15;37.60;1.00
30150;DHT22;16962;48.646;9.026;2023-08-24T13:24:06;36.80;1.00
30150;DHT22;16962;48.646;9.026;2023-08-24T13:26:54;36.80;1.00
30150;DHT22;16962;48.646;9.026;2023-08-24T13:29:44;37.90;1.00
30150;DHT22;16962;48.646;9.026;2023-08-24T13:32:31;37.90;1.00
30150;DHT22;16962;48.646;9.026;2023-08-24T13:35:22;38.30;1.00
30150;DHT22;16962;48.646;9.026;2023-08-24T13:38:10;39.60;1.00
30150;DHT22;16962;48.646;9.026;2023-08-24T13:41:10;37.80;1.00
30150;DHT22;16962;48.646;9.026;2023-08-24T13:44:13;36.40;1.00
30150;DHT22;16962;48.646;9.026;2023-08-24T13:47:22;35.10;1.00
30150;DHT22;16962;48.646;9.026;2023-08-24T13:50:13;34.90;1.00
30150;DHT22;16962;48.646;9.026;2023-08-24T13:53:01;36.00;1.00
30150;DHT22;16962;48.646;9.026;2023-08-24T13:55:51;36.40;1.00
30150;DHT22;16962;48.646;9.026;2023-08-24T13:58:41;36.70;1.00
30150;DHT22;16962;48.646;9.026;2023-08-24T14:01:28;36.30;1.00
30150;DHT22;16962;48.646;9.026;2023-08-24T14:04:23;36.40;1.00
30150;DHT22;16962;48.646;9.026;2023-08-24T14:07:15;35.50;1.00
30150;DHT22;16962;48.646;9.026;2023-08-24T14:10:40;35.30;1.00
30150;DHT22;16962;48.646;9.026;2023-08-24T14:13:46;34.60;1.00
30150;DHT22;16962;48.646;9.026;2023-08-24T14:16:54;34.90;1.00
30150;DHT22;16962;48.646;9.026;2023-08-24T14:20:31;34.40;1.00
30150;DHT22;16962;48.646;9.026;2023-08-24T14:24:27;34.40;1.00
30150;DHT22;16962;48.646;9.026;2023-08-24T14:27:40;33.70;1.00
30150;DHT22;16962;48.646;9.026;2023-08-24T14:30:58;33.50;1.00
30150;DHT22;16962;48.646;9.026;2023-08-24T14:37:37;32.90;1.00
30150;DHT22;16962;48.646;9.026;2023-08-24T14:40:33;32.60;1.00
30150;DHT22;16962;48.646;9.026;2023-08-24T14:44:24;32.50;1.00
30150;DHT22;16962;48.646;9.026;2023-08-24T14:47:36;32.50;1.00
30150;DHT22;16962;48.646;9.026;2023-08-24T14:51:00;32.50;1.00
30150;DHT22;16962;48.646;9.026;2023-08-24T14:53:48;32.40;1.00
30150;DHT22;16962;48.646;9.026;2023-08-24T14:56:49;32.20;1.00
30150;DHT22;16962;48.646;9.026;2023-08-24T14:59:37;32.00;1.00
30150;DHT22;16962;48.646;9.026;2023-08-24T15:02:31;31.70;1.00
30150;DHT22;16962;48.646;9.026;2023-08-24T15:05:22;30.70;1.00
30150;DHT22;16962;48.646;9.026;2023-08-24T15:08:10;29.00;1.00
30150;DHT22;16962;48.646;9.026;2023-08-24T15:11:01;28.10;1.00
30150;DHT22;16962;48.646;9.026;2023-08-24T15:13:54;27.60;5.60
30150;DHT22;16962;48.646;9.026;2023-08-24T15:16:43;27.60;24.20
30150;DHT22;16962;48.646;9.026;2023-08-24T15:19:38;27.60;36.60
30150;DHT22;16962;48.646;9.026;2023-08-24T15:22:25;27.60;44.10
30150;DHT22;16962;48.646;9.026;2023-08-24T15:25:16;27.60;44.10
30150;DHT22;16962;48.646;9.026;2023-08-24T15:28:04;27.50;51.00
30150;DHT22;16962;48.646;9.026;2023-08-24T15:30:58;27.30;70.30
30150;DHT22;16962;48.646;9.026;2023-08-24T15:33:45;27.20;97.00
30150;DHT22;16962;48.646;9.026;2023-08-24T15:36:35;27.10;99.90
30150;DHT22;16962;48.646;9.026;2023-08-24T15:39:23;26.90;96.10
30150;DHT22;16962;48.646;9.026;2023-08-24T15:42:14;27.00;99.90
30150;DHT22;16962;48.646;9.026;2023-08-24T15:45:01;27.10;99.80
30150;DHT22;16962;48.646;9.026;2023-08-24T15:47:49;27.00;99.90
30150;DHT22;16962;48.646;9.026;2023-08-24T15:50:42;26.70;95.00
30150;DHT22;16962;48.646;9.026;2023-08-24T15:53:35;26.60;99.90
30150;DHT22;16962;48.646;9.026;2023-08-24T15:56:26;26.60;99.90
30150;DHT22;16962;48.646;9.026;2023-08-24T15:59:23;26.60;99.90
30150;DHT22;16962;48.646;9.026;2023-08-24T16:02:10;26.40;99.90
30150;DHT22;16962;48.646;9.026;2023-08-24T16:04:58;26.40;99.90
30150;DHT22;16962;48.646;9.026;2023-08-24T16:07:50;26.40;99.90
30150;DHT22;16962;48.646;9.026;2023-08-24T16:10:41;26.30;99.90
30150;DHT22;16962;48.646;9.026;2023-08-24T16:13:46;26.10;99.90
30150;DHT22;16962;48.646;9.026;2023-08-24T16:16:36;26.10;99.90
30150;DHT22;16962;48.646;9.026;2023-08-24T16:19:28;26.00;99.90
30150;DHT22;16962;48.646;9.026;2023-08-24T16:22:15;25.90;99.90
30150;DHT22;16962;48.646;9.026;2023-08-24T16:25:04;25.80;99.90
30150;DHT22;16962;48.646;9.026;2023-08-24T16:27:56;25.60;99.90
30150;DHT22;16962;48.646;9.026;2023-08-24T16:30:55;25.40;99.90
30150;DHT22;16962;48.646;9.026;2023-08-24T16:33:47;25.30;99.90
30150;DHT22;16962;48.646;9.026;2023-08-24T16:36:34;25.20;99.90
30150;DHT22;16962;48.646;9.026;2023-08-24T16:39:25;25.20;99.90
30150;DHT22;16962;48.646;9.026;2023-08-24T16:42:40;25.00;99.90
30150;DHT22;16962;48.646;9.026;2023-08-24T16:45:30;25.00;99.90
30150;DHT22;16962;48.646;9.026;2023-08-24T16:48:28;24.90;99.90
30150;DHT22;16962;48.646;9.026;2023-08-24T16:51:18;24.80;99.90
30150;DHT22;16962;48.646;9.026;2023-08-24T16:54:16;24.60;99.90
30150;DHT22;16962;48.646;9.026;2023-08-24T16:57:07;24.60;99.90
30150;DHT22;16962;48.646;9.026;2023-08-24T17:00:15;24.60;99.90
30150;DHT22;16962;48.646;9.026;2023-08-24T17:03:07;24.50;99.90
30150;DHT22;16962;48.646;9.026;2023-08-24T17:06:02;24.60;99.90
30150;DHT22;16962;48.646;9.026;2023-08-24T17:08:58;24.50;99.90
30150;DHT22;16962;48.646;9.026;2023-08-24T17:12:08;24.50;99.90
30150;DHT22;16962;48.646;9.026;2023-08-24T17:15:14;24.50;99.90
30150;DHT22;16962;48.646;9.026;2023-08-24T17:18:15;24.40;99.90
30150;DHT22;16962;48.646;9.026;2023-08-24T17:21:03;24.40;99.90
30150;DHT22;16962;48.646;9.026;2023-08-24T17:24:12;24.40;99.90
30150;DHT22;16962;48.646;9.026;2023-08-24T17:27:06;24.40;99.90
30150;DHT22;16962;48.646;9.026;2023-08-24T17:29:54;24.30;99.90
30150;DHT22;16962;48.646;9.026;2023-08-24T17:32:41;24.30;99.90
30150;DHT22;16962;48.646;9.026;2023-08-24T17:35:31;24.30;99.90
30150;DHT22;16962;48.646;9.026;2023-08-24T17:38:19;24.30;99.90
30150;DHT22;16962;48.646;9.026;2023-08-24T17:41:09;24.30;99.90
30150;DHT22;16962;48.646;9.026;2023-08-24T17:43:58;24.20;99.90
30150;DHT22;16962;48.646;9.026;2023-08-24T17:46:46;24.20;99.90
30150;DHT22;16962;48.646;9.026;2023-08-24T17:49:36;24.10;99.90
30150;DHT22;16962;48.646;9.026;2023-08-24T17:52:32;24.10;99.90
30150;DHT22;16962;48.646;9.026;2023-08-24T17:55:20;24.00;99.90
30150;DHT22;16962;48.646;9.026;2023-08-24T17:58:07;24.00;99.90
30150;DHT22;16962;48.646;9.026;2023-08-24T18:00:55;24.00;99.90
30150;DHT22;16962;48.646;9.026;2023-08-24T18:03:47;24.10;99.90
30150;DHT22;16962;48.646;9.026;2023-08-24T18:06:34;24.10;99.90
30150;DHT22;16962;48.646;9.026;2023-08-24T18:09:22;24.00;99.90
30150;DHT22;16962;48.646;9.026;2023-08-24T18:12:13;23.80;99.90
30150;DHT22;16962;48.646;9.026;2023-08-24T18:15:03;23.70;99.90
30150;DHT22;16962;48.646;9.026;2023-08-24T18:17:55;23.60;99.90
30150;DHT22;16962;48.646;9.026;2023-08-24T18:20:42;23.50;99.90
30150;DHT22;16962;48.646;9.026;2023-08-24T18:23:30;23.30;99.90
30150;DHT22;16962;48.646;9.026;2023-08-24T18:26:17;23.20;99.90
30150;DHT22;16962;48.646;9.026;2023-08-24T18:29:36;23.10;99.90
30150;DHT22;16962;48.646;9.026;2023-08-24T18:33:02;23.20;99.90
30150;DHT22;16962;48.646;9.026;2023-08-24T18:36:55;23.40;99.90
30150;DHT22;16962;48.646;9.026;2023-08-24T18:40:27;23.40;99.90
30150;DHT22;16962;48.646;9.026;2023-08-24T18:43:46;23.40;99.90
30150;DHT22;16962;48.646;9.026;2023-08-24T18:47:04;23.40;99.90
30150;DHT22;16962;48.646;9.026;2023-08-24T18:59:02;23.00;99.90
30150;DHT22;16962;48.646;9.026;2023-08-24T19:05:51;22.80;1.00
30150;DHT22;16962;48.646;9.026;2023-08-24T19:09:13;22.80;1.00
30150;DHT22;16962;48.646;9.026;2023-08-24T19:12:05;22.20;99.90
30150;DHT22;16962;48.646;9.026;2023-08-24T19:14:52;21.80;99.90
30150;DHT22;16962;48.646;9.026;2023-08-24T19:17:40;21.20;99.90
30150;DHT22;16962;48.646;9.026;2023-08-24T19:20:27;21.00;99.90
30150;DHT22;16962;48.646;9.026;2023-08-24T19:23:17;20.80;99.90
30150;DHT22;16962;48.646;9.026;2023-08-24T19:26:12;20.70;99.90